sensor_id;sensor_type;location;lat;lon;timestamp;P1;durP1;ratioP1;P2;durP2;ratioP2
68509;SDS011;55512;50.102;19.958;2023-09-19T00:00:17;16.70;;;10.20;;
68509;SDS011;55512;50.102;19.958;2023-09-19T00:02:55;16.10;;;9.90;;
68509;SDS011;55512;50.102;19.958;2023-09-19T00:05:29;14.10;;;9.60;;
68509;SDS011;55512;50.102;19.958;2023-09-19T00:07:56;17.10;;;10.50;;
68509;SDS011;55512;50.102;19.958;2023-09-19T00:10:26;15.20;;;10.00;;
68509;SDS011;55512;50.102;19.958;2023-09-19T00:12:55;15.80;;;10.50;;
68509;SDS011;55512;50.102;19.958;2023-09-19T00:15:24;13.10;;;10.10;;
68509;SDS011;55512;50.102;19.958;2023-09-19T00:17:53;15.00;;;9.70;;
68509;SDS011;55512;50.102;19.958;2023-09-19T00:20:19;13.30;;;9.10;;
68509;SDS011;55512;50.102;19.958;2023-09-19T00:22:48;14.30;;;9.60;;
68509;SDS011;55512;50.102;19.958;2023-09-19T00:25:14;14.20;;;8.80;;
68509;SDS011;55512;50.102;19.958;2023-09-19T00:27:41;16.70;;;9.30;;
68509;SDS011;55512;50.102;19.958;2023-09-19T00:30:11;14.30;;;9.30;;
68509;SDS011;55512;50.102;19.958;2023-09-19T00:32:50;14.10;;;9.70;;
68509;SDS011;55512;50.102;19.958;2023-09-19T00:35:20;15.60;;;10.10;;
68509;SDS011;55512;50.102;19.958;2023-09-19T00:37:50;17.80;;;10.20;;
68509;SDS011;55512;50.102;19.958;2023-09-19T00:40:19;14.20;;;9.60;;
68509;SDS011;55512;50.102;19.958;2023-09-19T00:42:47;15.10;;;10.30;;
68509;SDS011;55512;50.102;19.958;2023-09-19T00:45:15;15.70;;;10.50;;
68509;SDS011;55512;50.102;19.958;2023-09-19T00:47:44;16.40;;;9.40;;
68509;SDS011;55512;50.102;19.958;2023-09-19T00:50:12;16.60;;;10.40;;
68509;SDS011;55512;50.102;19.958;2023-09-19T00:52:40;14.40;;;9.80;;
68509;SDS011;55512;50.102;19.958;2023-09-19T00:55:08;15.80;;;10.30;;
68509;SDS011;55512;50.102;19.958;2023-09-19T00:57:37;16.30;;;10.70;;
68509;SDS011;55512;50.102;19.958;2023-09-19T01:00:05;14.80;;;9.70;;
68509;SDS011;55512;50.102;19.958;2023-09-19T01:02:32;14.80;;;9.50;;
68509;SDS011;55512;50.102;19.958;2023-09-19T01:04:59;16.60;;;10.50;;
68509;SDS011;55512;50.102;19.958;2023-09-19T01:07:30;15.50;;;10.30;;
68509;SDS011;55512;50.102;19.958;2023-09-19T01:09:58;17.30;;;10.60;;
68509;SDS011;55512;50.102;19.958;2023-09-19T01:15:49;15.60;;;10.30;;
68509;SDS011;55512;50.102;19.958;2023-09-19T01:21:11;17.80;;;11.10;;
68509;SDS011;55512;50.102;19.958;2023-09-19T01:30:17;17.50;;;11.90;;
68509;SDS011;55512;50.102;19.958;2023-09-19T01:32:49;17.60;;;10.70;;
68509;SDS011;55512;50.102;19.958;2023-09-19T01:35:17;14.80;;;10.40;;
68509;SDS011;55512;50.102;19.958;2023-09-19T01:37:43;15.20;;;10.40;;
68509;SDS011;55512;50.102;19.958;2023-09-19T01:40:14;15.70;;;10.70;;
68509;SDS011;55512;50.102;19.958;2023-09-19T01:45:46;16.50;;;10.90;;
68509;SDS011;55512;50.102;19.958;2023-09-19T01:48:41;15.90;;;9.80;;
68509;SDS011;55512;50.102;19.958;2023-09-19T01:51:21;17.00;;;10.80;;
68509;SDS011;55512;50.102;19.958;2023-09-19T01:54:04;16.90;;;11.40;;
68509;SDS011;55512;50.102;19.958;2023-09-19T01:56:44;17.00;;;11.00;;
68509;SDS011;55512;50.102;19.958;2023-09-19T01:59:24;15.10;;;10.30;;
68509;SDS011;55512;50.102;19.958;2023-09-19T02:01:55;18.20;;;10.50;;
68509;SDS011;55512;50.102;19.958;2023-09-19T02:04:23;14.10;;;10.50;;
68509;SDS011;55512;50.102;19.958;2023-09-19T02:06:48;16.20;;;10.10;;
68509;SDS011;55512;50.102;19.958;2023-09-19T02:09:16;14.30;;;10.00;;
68509;SDS011;55512;50.102;19.958;2023-09-19T02:11:42;14.80;;;10.30;;
68509;SDS011;55512;50.102;19.958;2023-09-19T02:14:07;14.70;;;10.60;;
68509;SDS011;55512;50.102;19.958;2023-09-19T02:16:34;16.30;;;11.10;;
68509;SDS011;55512;50.102;19.958;2023-09-19T02:19:00;16.40;;;10.50;;
68509;SDS011;55512;50.102;19.958;2023-09-19T02:21:26;15.60;;;10.70;;
68509;SDS011;55512;50.102;19.958;2023-09-19T02:23:55;16.00;;;11.30;;
68509;SDS011;55512;50.102;19.958;2023-09-19T02:26:21;18.00;;;11.40;;
68509;SDS011;55512;50.102;19.958;2023-09-19T02:28:49;18.30;;;11.60;;
68509;SDS011;55512;50.102;19.958;2023-09-19T02:31:15;18.30;;;11.30;;
68509;SDS011;55512;50.102;19.958;2023-09-19T02:33:41;15.90;;;10.80;;
68509;SDS011;55512;50.102;19.958;2023-09-19T02:36:07;16.80;;;10.90;;
68509;SDS011;55512;50.102;19.958;2023-09-19T02:38:34;16.60;;;11.00;;
68509;SDS011;55512;50.102;19.958;2023-09-19T02:40:59;16.00;;;10.50;;
68509;SDS011;55512;50.102;19.958;2023-09-19T02:43:25;19.10;;;11.40;;
68509;SDS011;55512;50.102;19.958;2023-09-19T02:45:51;16.50;;;11.30;;
68509;SDS011;55512;50.102;19.958;2023-09-19T02:48:20;15.10;;;10.70;;
68509;SDS011;55512;50.102;19.958;2023-09-19T02:50:49;17.30;;;10.60;;
68509;SDS011;55512;50.102;19.958;2023-09-19T02:53:15;16.00;;;10.60;;
68509;SDS011;55512;50.102;19.958;2023-09-19T02:55:41;17.10;;;10.80;;
68509;SDS011;55512;50.102;19.958;2023-09-19T02:58:07;14.70;;;10.60;;
68509;SDS011;55512;50.102;19.958;2023-09-19T03:00:36;14.50;;;10.60;;
68509;SDS011;55512;50.102;19.958;2023-09-19T03:03:02;17.70;;;10.30;;
68509;SDS011;55512;50.102;19.958;2023-09-19T03:05:28;19.00;;;11.30;;
68509;SDS011;55512;50.102;19.958;2023-09-19T03:07:56;15.80;;;10.80;;
68509;SDS011;55512;50.102;19.958;2023-09-19T03:10:23;15.30;;;10.90;;
68509;SDS011;55512;50.102;19.958;2023-09-19T03:12:50;17.10;;;11.80;;
68509;SDS011;55512;50.102;19.958;2023-09-19T03:15:16;16.10;;;11.80;;
68509;SDS011;55512;50.102;19.958;2023-09-19T03:17:46;16.70;;;11.20;;
68509;SDS011;55512;50.102;19.958;2023-09-19T03:20:16;15.80;;;10.50;;
68509;SDS011;55512;50.102;19.958;2023-09-19T03:22:46;15.00;;;10.10;;
68509;SDS011;55512;50.102;19.958;2023-09-19T03:25:12;17.70;;;11.90;;
68509;SDS011;55512;50.102;19.958;2023-09-19T03:27:40;16.70;;;10.80;;
68509;SDS011;55512;50.102;19.958;2023-09-19T03:30:07;17.90;;;11.70;;
68509;SDS011;55512;50.102;19.958;2023-09-19T03:32:43;17.60;;;11.30;;
68509;SDS011;55512;50.102;19.958;2023-09-19T03:35:15;17.90;;;11.90;;
68509;SDS011;55512;50.102;19.958;2023-09-19T03:37:42;17.30;;;11.30;;
68509;SDS011;55512;50.102;19.958;2023-09-19T03:40:09;16.30;;;10.90;;
68509;SDS011;55512;50.102;19.958;2023-09-19T03:42:40;18.80;;;11.60;;
68509;SDS011;55512;50.102;19.958;2023-09-19T03:45:07;18.60;;;11.80;;
68509;SDS011;55512;50.102;19.958;2023-09-19T03:47:38;16.40;;;11.20;;
68509;SDS011;55512;50.102;19.958;2023-09-19T03:50:07;15.40;;;10.50;;
68509;SDS011;55512;50.102;19.958;2023-09-19T03:52:35;16.10;;;11.40;;
68509;SDS011;55512;50.102;19.958;2023-09-19T03:55:01;22.40;;;12.00;;
68509;SDS011;55512;50.102;19.958;2023-09-19T03:57:29;18.10;;;11.50;;
68509;SDS011;55512;50.102;19.958;2023-09-19T03:59:55;16.60;;;11.50;;
68509;SDS011;55512;50.102;19.958;2023-09-19T04:02:21;16.20;;;11.20;;
68509;SDS011;55512;50.102;19.958;2023-09-19T04:04:50;19.60;;;12.90;;
68509;SDS011;55512;50.102;19.958;2023-09-19T04:07:17;18.60;;;12.20;;
68509;SDS011;55512;50.102;19.958;2023-09-19T04:09:44;16.60;;;11.90;;
68509;SDS011;55512;50.102;19.958;2023-09-19T04:12:11;18.80;;;12.00;;
68509;SDS011;55512;50.102;19.958;2023-09-19T04:14:37;19.30;;;12.10;;
68509;SDS011;55512;50.102;19.958;2023-09-19T04:17:03;18.80;;;11.20;;
68509;SDS011;55512;50.102;19.958;2023-09-19T04:19:30;17.10;;;11.60;;
68509;SDS011;55512;50.102;19.958;2023-09-19T04:21:55;18.30;;;11.50;;
68509;SDS011;55512;50.102;19.958;2023-09-19T04:24:21;18.80;;;12.10;;
68509;SDS011;55512;50.102;19.958;2023-09-19T04:26:46;17.00;;;11.50;;
68509;SDS011;55512;50.102;19.958;2023-09-19T04:29:12;17.90;;;12.00;;
68509;SDS011;55512;50.102;19.958;2023-09-19T04:31:39;18.10;;;12.40;;
68509;SDS011;55512;50.102;19.958;2023-09-19T04:34:06;17.40;;;11.50;;
68509;SDS011;55512;50.102;19.958;2023-09-19T04:36:35;18.10;;;11.70;;
68509;SDS011;55512;50.102;19.958;2023-09-19T04:39:02;17.10;;;11.70;;
68509;SDS011;55512;50.102;19.958;2023-09-19T04:41:32;16.40;;;11.90;;
68509;SDS011;55512;50.102;19.958;2023-09-19T04:43:58;17.30;;;11.80;;
68509;SDS011;55512;50.102;19.958;2023-09-19T04:46:23;18.40;;;12.60;;
68509;SDS011;55512;50.102;19.958;2023-09-19T04:48:49;17.80;;;12.40;;
68509;SDS011;55512;50.102;19.958;2023-09-19T04:51:14;16.30;;;11.70;;
68509;SDS011;55512;50.102;19.958;2023-09-19T04:53:40;16.20;;;11.80;;
68509;SDS011;55512;50.102;19.958;2023-09-19T04:56:06;18.90;;;11.90;;
68509;SDS011;55512;50.102;19.958;2023-09-19T04:58:33;17.00;;;11.50;;
68509;SDS011;55512;50.102;19.958;2023-09-19T05:00:59;16.10;;;10.90;;
68509;SDS011;55512;50.102;19.958;2023-09-19T05:03:24;15.20;;;10.20;;
68509;SDS011;55512;50.102;19.958;2023-09-19T05:05:50;13.70;;;8.90;;
68509;SDS011;55512;50.102;19.958;2023-09-19T05:08:15;15.80;;;10.80;;
68509;SDS011;55512;50.102;19.958;2023-09-19T05:10:41;16.30;;;11.00;;
68509;SDS011;55512;50.102;19.958;2023-09-19T05:13:06;15.60;;;10.50;;
68509;SDS011;55512;50.102;19.958;2023-09-19T05:15:35;15.30;;;10.00;;
68509;SDS011;55512;50.102;19.958;2023-09-19T05:18:01;17.70;;;12.80;;
68509;SDS011;55512;50.102;19.958;2023-09-19T05:20:28;17.50;;;12.90;;
68509;SDS011;55512;50.102;19.958;2023-09-19T05:23:04;16.90;;;12.60;;
68509;SDS011;55512;50.102;19.958;2023-09-19T05:25:33;16.30;;;12.40;;
68509;SDS011;55512;50.102;19.958;2023-09-19T05:28:08;19.40;;;13.90;;
68509;SDS011;55512;50.102;19.958;2023-09-19T05:30:37;23.90;;;13.40;;
68509;SDS011;55512;50.102;19.958;2023-09-19T05:33:04;16.70;;;13.10;;
68509;SDS011;55512;50.102;19.958;2023-09-19T05:35:31;19.20;;;13.60;;
68509;SDS011;55512;50.102;19.958;2023-09-19T05:37:57;21.10;;;14.00;;
68509;SDS011;55512;50.102;19.958;2023-09-19T05:40:23;18.20;;;12.60;;
68509;SDS011;55512;50.102;19.958;2023-09-19T05:42:49;18.70;;;12.30;;
68509;SDS011;55512;50.102;19.958;2023-09-19T05:45:18;21.10;;;12.80;;
68509;SDS011;55512;50.102;19.958;2023-09-19T05:47:48;16.80;;;11.40;;
68509;SDS011;55512;50.102;19.958;2023-09-19T05:50:15;15.10;;;11.10;;
68509;SDS011;55512;50.102;19.958;2023-09-19T05:52:41;17.20;;;12.00;;
68509;SDS011;55512;50.102;19.958;2023-09-19T05:55:08;16.10;;;11.30;;
68509;SDS011;55512;50.102;19.958;2023-09-19T05:57:34;16.30;;;11.30;;
68509;SDS011;55512;50.102;19.958;2023-09-19T06:00:00;19.40;;;13.40;;
68509;SDS011;55512;50.102;19.958;2023-09-19T06:02:26;18.40;;;12.70;;
68509;SDS011;55512;50.102;19.958;2023-09-19T06:04:55;18.00;;;12.70;;
68509;SDS011;55512;50.102;19.958;2023-09-19T06:07:22;18.70;;;12.00;;
68509;SDS011;55512;50.102;19.958;2023-09-19T06:09:51;18.30;;;12.80;;
68509;SDS011;55512;50.102;19.958;2023-09-19T06:12:18;17.70;;;12.60;;
68509;SDS011;55512;50.102;19.958;2023-09-19T06:14:44;17.60;;;12.00;;
68509;SDS011;55512;50.102;19.958;2023-09-19T06:17:10;18.70;;;12.50;;
68509;SDS011;55512;50.102;19.958;2023-09-19T06:19:35;22.70;;;14.70;;
68509;SDS011;55512;50.102;19.958;2023-09-19T06:22:01;20.70;;;14.50;;
68509;SDS011;55512;50.102;19.958;2023-09-19T06:24:27;19.10;;;12.90;;
68509;SDS011;55512;50.102;19.958;2023-09-19T06:26:53;18.30;;;12.50;;
68509;SDS011;55512;50.102;19.958;2023-09-19T06:29:20;17.40;;;11.30;;
68509;SDS011;55512;50.102;19.958;2023-09-19T06:31:46;15.40;;;10.90;;
68509;SDS011;55512;50.102;19.958;2023-09-19T06:34:12;17.00;;;11.80;;
68509;SDS011;55512;50.102;19.958;2023-09-19T06:36:40;18.00;;;12.30;;
68509;SDS011;55512;50.102;19.958;2023-09-19T06:39:06;17.70;;;11.90;;
68509;SDS011;55512;50.102;19.958;2023-09-19T06:41:36;18.80;;;12.20;;
68509;SDS011;55512;50.102;19.958;2023-09-19T06:44:03;17.70;;;12.10;;
68509;SDS011;55512;50.102;19.958;2023-09-19T06:46:30;16.80;;;12.00;;
68509;SDS011;55512;50.102;19.958;2023-09-19T06:49:00;17.20;;;12.00;;
68509;SDS011;55512;50.102;19.958;2023-09-19T06:51:26;19.40;;;13.20;;
68509;SDS011;55512;50.102;19.958;2023-09-19T06:53:51;16.70;;;12.10;;
68509;SDS011;55512;50.102;19.958;2023-09-19T06:56:19;15.70;;;11.80;;
68509;SDS011;55512;50.102;19.958;2023-09-19T06:58:49;17.50;;;12.20;;
68509;SDS011;55512;50.102;19.958;2023-09-19T07:01:15;15.90;;;10.80;;
68509;SDS011;55512;50.102;19.958;2023-09-19T07:03:40;14.90;;;11.00;;
68509;SDS011;55512;50.102;19.958;2023-09-19T07:06:06;17.60;;;13.00;;
68509;SDS011;55512;50.102;19.958;2023-09-19T07:08:31;18.00;;;12.20;;
68509;SDS011;55512;50.102;19.958;2023-09-19T07:10:56;17.90;;;12.40;;
68509;SDS011;55512;50.102;19.958;2023-09-19T07:13:22;17.90;;;13.00;;
68509;SDS011;55512;50.102;19.958;2023-09-19T07:15:47;20.10;;;13.20;;
68509;SDS011;55512;50.102;19.958;2023-09-19T07:18:16;17.20;;;12.50;;
68509;SDS011;55512;50.102;19.958;2023-09-19T07:20:45;17.40;;;13.20;;
68509;SDS011;55512;50.102;19.958;2023-09-19T07:23:18;21.00;;;13.80;;
68509;SDS011;55512;50.102;19.958;2023-09-19T07:25:46;18.00;;;12.20;;
68509;SDS011;55512;50.102;19.958;2023-09-19T07:28:12;18.00;;;11.70;;
68509;SDS011;55512;50.102;19.958;2023-09-19T07:30:38;17.40;;;11.70;;
68509;SDS011;55512;50.102;19.958;2023-09-19T07:33:04;17.40;;;11.90;;
68509;SDS011;55512;50.102;19.958;2023-09-19T07:35:31;17.50;;;12.10;;
68509;SDS011;55512;50.102;19.958;2023-09-19T07:37:57;17.90;;;12.40;;
68509;SDS011;55512;50.102;19.958;2023-09-19T07:40:24;16.20;;;11.10;;
68509;SDS011;55512;50.102;19.958;2023-09-19T07:42:57;17.10;;;11.60;;
68509;SDS011;55512;50.102;19.958;2023-09-19T07:45:27;15.80;;;11.20;;
68509;SDS011;55512;50.102;19.958;2023-09-19T07:47:55;18.80;;;12.40;;
68509;SDS011;55512;50.102;19.958;2023-09-19T07:50:21;15.80;;;10.70;;
68509;SDS011;55512;50.102;19.958;2023-09-19T07:52:48;15.10;;;10.90;;
68509;SDS011;55512;50.102;19.958;2023-09-19T07:55:18;14.60;;;11.00;;
68509;SDS011;55512;50.102;19.958;2023-09-19T07:57:44;16.20;;;10.30;;
68509;SDS011;55512;50.102;19.958;2023-09-19T08:00:11;13.40;;;9.40;;
68509;SDS011;55512;50.102;19.958;2023-09-19T08:02:38;12.40;;;8.90;;
68509;SDS011;55512;50.102;19.958;2023-09-19T08:05:05;11.70;;;8.10;;
68509;SDS011;55512;50.102;19.958;2023-09-19T08:07:35;8.20;;;6.10;;
68509;SDS011;55512;50.102;19.958;2023-09-19T08:10:02;10.40;;;7.30;;
68509;SDS011;55512;50.102;19.958;2023-09-19T08:12:29;11.70;;;8.70;;
68509;SDS011;55512;50.102;19.958;2023-09-19T08:14:55;11.00;;;7.90;;
68509;SDS011;55512;50.102;19.958;2023-09-19T08:17:21;12.00;;;8.30;;
68509;SDS011;55512;50.102;19.958;2023-09-19T08:19:48;12.50;;;8.40;;
68509;SDS011;55512;50.102;19.958;2023-09-19T08:22:18;12.80;;;9.10;;
68509;SDS011;55512;50.102;19.958;2023-09-19T08:24:44;13.90;;;8.50;;
68509;SDS011;55512;50.102;19.958;2023-09-19T08:27:11;13.50;;;9.40;;
68509;SDS011;55512;50.102;19.958;2023-09-19T08:29:37;12.80;;;8.80;;
68509;SDS011;55512;50.102;19.958;2023-09-19T08:32:04;10.20;;;6.70;;
68509;SDS011;55512;50.102;19.958;2023-09-19T08:34:29;12.20;;;7.80;;
68509;SDS011;55512;50.102;19.958;2023-09-19T08:36:57;10.50;;;7.40;;
68509;SDS011;55512;50.102;19.958;2023-09-19T08:39:24;8.50;;;5.90;;
68509;SDS011;55512;50.102;19.958;2023-09-19T08:42:00;10.30;;;6.80;;
68509;SDS011;55512;50.102;19.958;2023-09-19T08:44:27;12.80;;;7.90;;
68509;SDS011;55512;50.102;19.958;2023-09-19T08:47:16;10.90;;;8.00;;
68509;SDS011;55512;50.102;19.958;2023-09-19T08:50:29;9.80;;;6.30;;
68509;SDS011;55512;50.102;19.958;2023-09-19T08:52:58;13.50;;;8.40;;
68509;SDS011;55512;50.102;19.958;2023-09-19T08:55:29;13.20;;;8.80;;
68509;SDS011;55512;50.102;19.958;2023-09-19T08:58:01;14.60;;;9.20;;
68509;SDS011;55512;50.102;19.958;2023-09-19T09:00:28;11.20;;;6.70;;
68509;SDS011;55512;50.102;19.958;2023-09-19T09:02:56;14.90;;;8.90;;
68509;SDS011;55512;50.102;19.958;2023-09-19T09:05:24;14.80;;;8.40;;
68509;SDS011;55512;50.102;19.958;2023-09-19T09:07:52;13.20;;;8.90;;
68509;SDS011;55512;50.102;19.958;2023-09-19T09:10:20;13.20;;;8.60;;
68509;SDS011;55512;50.102;19.958;2023-09-19T09:12:49;15.30;;;9.30;;
68509;SDS011;55512;50.102;19.958;2023-09-19T09:15:19;11.90;;;8.00;;
68509;SDS011;55512;50.102;19.958;2023-09-19T09:17:47;15.40;;;10.30;;
68509;SDS011;55512;50.102;19.958;2023-09-19T09:20:17;16.30;;;10.80;;
68509;SDS011;55512;50.102;19.958;2023-09-19T09:22:51;15.70;;;8.60;;
68509;SDS011;55512;50.102;19.958;2023-09-19T09:25:22;15.30;;;9.10;;
68509;SDS011;55512;50.102;19.958;2023-09-19T09:28:00;16.00;;;10.40;;
68509;SDS011;55512;50.102;19.958;2023-09-19T09:30:36;17.60;;;10.30;;
68509;SDS011;55512;50.102;19.958;2023-09-19T09:33:09;15.90;;;10.20;;
68509;SDS011;55512;50.102;19.958;2023-09-19T09:35:46;16.20;;;9.80;;
68509;SDS011;55512;50.102;19.958;2023-09-19T09:38:24;16.70;;;11.10;;
68509;SDS011;55512;50.102;19.958;2023-09-19T09:40:59;15.50;;;10.80;;
68509;SDS011;55512;50.102;19.958;2023-09-19T09:43:38;16.30;;;9.80;;
68509;SDS011;55512;50.102;19.958;2023-09-19T09:49:01;15.60;;;9.70;;
68509;SDS011;55512;50.102;19.958;2023-09-19T09:51:59;12.60;;;8.60;;
68509;SDS011;55512;50.102;19.958;2023-09-19T09:54:31;13.40;;;9.00;;
68509;SDS011;55512;50.102;19.958;2023-09-19T09:57:04;12.30;;;8.30;;
68509;SDS011;55512;50.102;19.958;2023-09-19T09:59:49;11.90;;;7.20;;
68509;SDS011;55512;50.102;19.958;2023-09-19T10:02:18;11.00;;;7.40;;
68509;SDS011;55512;50.102;19.958;2023-09-19T10:04:55;11.50;;;7.20;;
68509;SDS011;55512;50.102;19.958;2023-09-19T10:07:31;9.90;;;6.80;;
68509;SDS011;55512;50.102;19.958;2023-09-19T10:10:15;11.90;;;6.80;;
68509;SDS011;55512;50.102;19.958;2023-09-19T10:13:20;11.80;;;6.10;;
68509;SDS011;55512;50.102;19.958;2023-09-19T10:15:51;10.50;;;6.10;;
68509;SDS011;55512;50.102;19.958;2023-09-19T10:18:21;9.90;;;6.40;;
68509;SDS011;55512;50.102;19.958;2023-09-19T10:20:52;8.90;;;5.60;;
68509;SDS011;55512;50.102;19.958;2023-09-19T10:23:19;9.30;;;5.60;;
68509;SDS011;55512;50.102;19.958;2023-09-19T10:25:49;10.20;;;5.70;;
68509;SDS011;55512;50.102;19.958;2023-09-19T10:28:16;7.20;;;4.50;;
68509;SDS011;55512;50.102;19.958;2023-09-19T10:30:48;9.10;;;4.90;;
68509;SDS011;55512;50.102;19.958;2023-09-19T10:33:22;8.10;;;4.60;;
68509;SDS011;55512;50.102;19.958;2023-09-19T10:35:53;9.10;;;4.70;;
68509;SDS011;55512;50.102;19.958;2023-09-19T10:38:24;7.00;;;4.30;;
68509;SDS011;55512;50.102;19.958;2023-09-19T10:40:52;7.90;;;4.40;;
68509;SDS011;55512;50.102;19.958;2023-09-19T10:43:31;7.70;;;4.70;;
68509;SDS011;55512;50.102;19.958;2023-09-19T10:46:02;8.90;;;4.80;;
68509;SDS011;55512;50.102;19.958;2023-09-19T10:48:32;10.10;;;5.20;;
68509;SDS011;55512;50.102;19.958;2023-09-19T10:51:05;9.20;;;5.10;;
68509;SDS011;55512;50.102;19.958;2023-09-19T10:53:44;8.90;;;5.00;;
68509;SDS011;55512;50.102;19.958;2023-09-19T10:56:29;9.80;;;5.80;;
68509;SDS011;55512;50.102;19.958;2023-09-19T10:59:08;10.10;;;5.50;;
68509;SDS011;55512;50.102;19.958;2023-09-19T11:02:17;10.20;;;5.70;;
68509;SDS011;55512;50.102;19.958;2023-09-19T11:04:43;9.40;;;5.70;;
68509;SDS011;55512;50.102;19.958;2023-09-19T11:07:14;9.10;;;5.70;;
68509;SDS011;55512;50.102;19.958;2023-09-19T11:14:59;8.70;;;4.60;;
68509;SDS011;55512;50.102;19.958;2023-09-19T11:20:23;7.00;;;4.50;;
68509;SDS011;55512;50.102;19.958;2023-09-19T11:30:50;8.10;;;5.70;;
68509;SDS011;55512;50.102;19.958;2023-09-19T11:33:30;10.10;;;5.80;;
68509;SDS011;55512;50.102;19.958;2023-09-19T11:43:46;8.70;;;6.10;;
68509;SDS011;55512;50.102;19.958;2023-09-19T11:46:16;11.60;;;6.80;;
68509;SDS011;55512;50.102;19.958;2023-09-19T11:48:47;9.90;;;6.30;;
68509;SDS011;55512;50.102;19.958;2023-09-19T11:51:23;10.30;;;6.40;;
68509;SDS011;55512;50.102;19.958;2023-09-19T11:53:53;9.30;;;5.60;;
68509;SDS011;55512;50.102;19.958;2023-09-19T11:56:22;10.40;;;6.00;;
68509;SDS011;55512;50.102;19.958;2023-09-19T11:58:52;10.40;;;6.00;;
68509;SDS011;55512;50.102;19.958;2023-09-19T12:01:24;9.70;;;5.40;;
68509;SDS011;55512;50.102;19.958;2023-09-19T12:03:59;9.00;;;5.50;;
68509;SDS011;55512;50.102;19.958;2023-09-19T12:06:26;8.60;;;5.50;;
68509;SDS011;55512;50.102;19.958;2023-09-19T12:08:54;10.00;;;5.50;;
68509;SDS011;55512;50.102;19.958;2023-09-19T12:11:23;9.60;;;5.60;;
68509;SDS011;55512;50.102;19.958;2023-09-19T12:13:49;8.40;;;5.00;;
68509;SDS011;55512;50.102;19.958;2023-09-19T12:16:21;9.30;;;5.50;;
68509;SDS011;55512;50.102;19.958;2023-09-19T12:18:48;8.40;;;4.90;;
68509;SDS011;55512;50.102;19.958;2023-09-19T12:21:30;8.80;;;5.00;;
68509;SDS011;55512;50.102;19.958;2023-09-19T12:26:39;9.10;;;5.50;;
68509;SDS011;55512;50.102;19.958;2023-09-19T12:29:20;9.80;;;5.40;;
68509;SDS011;55512;50.102;19.958;2023-09-19T12:31:50;7.70;;;4.90;;
68509;SDS011;55512;50.102;19.958;2023-09-19T12:34:30;10.00;;;5.60;;
68509;SDS011;55512;50.102;19.958;2023-09-19T12:37:15;8.40;;;5.50;;
68509;SDS011;55512;50.102;19.958;2023-09-19T12:39:46;9.30;;;5.70;;
68509;SDS011;55512;50.102;19.958;2023-09-19T12:42:22;9.90;;;6.10;;
68509;SDS011;55512;50.102;19.958;2023-09-19T12:44:54;9.00;;;5.80;;
68509;SDS011;55512;50.102;19.958;2023-09-19T12:47:22;9.40;;;5.90;;
68509;SDS011;55512;50.102;19.958;2023-09-19T12:50:09;9.80;;;6.20;;
68509;SDS011;55512;50.102;19.958;2023-09-19T12:52:40;11.30;;;6.30;;
68509;SDS011;55512;50.102;19.958;2023-09-19T12:55:20;10.20;;;6.30;;
68509;SDS011;55512;50.102;19.958;2023-09-19T12:58:15;11.20;;;6.90;;
68509;SDS011;55512;50.102;19.958;2023-09-19T13:00:44;11.70;;;6.50;;
68509;SDS011;55512;50.102;19.958;2023-09-19T13:03:18;11.10;;;7.10;;
68509;SDS011;55512;50.102;19.958;2023-09-19T13:05:52;9.80;;;6.00;;
68509;SDS011;55512;50.102;19.958;2023-09-19T13:08:25;10.40;;;6.70;;
68509;SDS011;55512;50.102;19.958;2023-09-19T13:11:12;9.80;;;6.60;;
68509;SDS011;55512;50.102;19.958;2023-09-19T13:13:47;10.90;;;6.20;;
68509;SDS011;55512;50.102;19.958;2023-09-19T13:16:19;9.50;;;6.20;;
68509;SDS011;55512;50.102;19.958;2023-09-19T13:18:49;8.40;;;5.70;;
68509;SDS011;55512;50.102;19.958;2023-09-19T13:21:30;10.70;;;6.50;;
68509;SDS011;55512;50.102;19.958;2023-09-19T13:24:24;10.50;;;6.60;;
68509;SDS011;55512;50.102;19.958;2023-09-19T13:26:55;9.50;;;5.70;;
68509;SDS011;55512;50.102;19.958;2023-09-19T13:29:21;9.00;;;6.20;;
68509;SDS011;55512;50.102;19.958;2023-09-19T13:31:48;9.50;;;6.00;;
68509;SDS011;55512;50.102;19.958;2023-09-19T13:34:15;8.50;;;5.50;;
68509;SDS011;55512;50.102;19.958;2023-09-19T13:36:42;9.10;;;6.20;;
68509;SDS011;55512;50.102;19.958;2023-09-19T13:39:08;9.10;;;5.80;;
68509;SDS011;55512;50.102;19.958;2023-09-19T13:41:35;8.20;;;5.20;;
68509;SDS011;55512;50.102;19.958;2023-09-19T13:44:02;8.90;;;5.70;;
68509;SDS011;55512;50.102;19.958;2023-09-19T13:46:29;8.00;;;5.50;;
68509;SDS011;55512;50.102;19.958;2023-09-19T13:49:01;9.80;;;5.90;;
68509;SDS011;55512;50.102;19.958;2023-09-19T13:51:30;11.40;;;5.90;;
68509;SDS011;55512;50.102;19.958;2023-09-19T13:53:56;9.80;;;5.30;;
68509;SDS011;55512;50.102;19.958;2023-09-19T13:56:21;8.80;;;6.30;;
68509;SDS011;55512;50.102;19.958;2023-09-19T13:58:47;10.00;;;5.60;;
68509;SDS011;55512;50.102;19.958;2023-09-19T14:01:13;10.40;;;5.80;;
68509;SDS011;55512;50.102;19.958;2023-09-19T14:03:39;9.20;;;5.40;;
68509;SDS011;55512;50.102;19.958;2023-09-19T14:06:05;10.50;;;7.10;;
68509;SDS011;55512;50.102;19.958;2023-09-19T14:08:31;12.00;;;6.90;;
68509;SDS011;55512;50.102;19.958;2023-09-19T14:10:58;9.50;;;5.70;;
68509;SDS011;55512;50.102;19.958;2023-09-19T14:13:23;10.00;;;5.90;;
68509;SDS011;55512;50.102;19.958;2023-09-19T14:15:50;9.10;;;5.70;;
68509;SDS011;55512;50.102;19.958;2023-09-19T14:18:16;11.70;;;6.40;;
68509;SDS011;55512;50.102;19.958;2023-09-19T14:20:41;9.60;;;6.30;;
68509;SDS011;55512;50.102;19.958;2023-09-19T14:23:07;11.60;;;6.50;;
68509;SDS011;55512;50.102;19.958;2023-09-19T14:25:36;11.40;;;6.10;;
68509;SDS011;55512;50.102;19.958;2023-09-19T14:28:03;9.40;;;5.50;;
68509;SDS011;55512;50.102;19.958;2023-09-19T14:30:30;7.90;;;4.80;;
68509;SDS011;55512;50.102;19.958;2023-09-19T14:32:57;10.20;;;5.50;;
68509;SDS011;55512;50.102;19.958;2023-09-19T14:35:23;9.20;;;5.20;;
68509;SDS011;55512;50.102;19.958;2023-09-19T14:37:48;9.50;;;5.10;;
68509;SDS011;55512;50.102;19.958;2023-09-19T14:40:14;9.00;;;4.50;;
68509;SDS011;55512;50.102;19.958;2023-09-19T14:42:43;7.60;;;5.10;;
68509;SDS011;55512;50.102;19.958;2023-09-19T14:45:10;7.70;;;4.60;;
68509;SDS011;55512;50.102;19.958;2023-09-19T14:47:37;9.20;;;5.40;;
68509;SDS011;55512;50.102;19.958;2023-09-19T14:50:03;9.40;;;6.00;;
68509;SDS011;55512;50.102;19.958;2023-09-19T14:52:33;7.80;;;5.20;;
68509;SDS011;55512;50.102;19.958;2023-09-19T14:55:00;8.90;;;5.20;;
68509;SDS011;55512;50.102;19.958;2023-09-19T14:57:25;8.60;;;5.60;;
68509;SDS011;55512;50.102;19.958;2023-09-19T14:59:51;8.50;;;5.60;;
68509;SDS011;55512;50.102;19.958;2023-09-19T15:02:17;8.50;;;6.10;;
68509;SDS011;55512;50.102;19.958;2023-09-19T15:04:43;9.30;;;5.70;;
68509;SDS011;55512;50.102;19.958;2023-09-19T15:07:12;7.70;;;5.50;;
68509;SDS011;55512;50.102;19.958;2023-09-19T15:09:41;9.60;;;6.00;;
68509;SDS011;55512;50.102;19.958;2023-09-19T15:12:07;8.50;;;5.30;;
68509;SDS011;55512;50.102;19.958;2023-09-19T15:14:32;8.40;;;5.50;;
68509;SDS011;55512;50.102;19.958;2023-09-19T15:16:58;8.20;;;5.20;;